sensor_id;sensor_type;location;lat;lon;timestamp;P1;durP1;ratioP1;P2;durP2;ratioP2
77612;SDS011;66777;52.282;5.960;2023-09-07T00:01:29;710.83;;;688.85;;
77612;SDS011;66777;52.282;5.960;2023-09-07T00:03:56;714.90;;;692.65;;
77612;SDS011;66777;52.282;5.960;2023-09-07T00:06:22;698.05;;;676.58;;
77612;SDS011;66777;52.282;5.960;2023-09-07T00:08:48;717.72;;;694.88;;
77612;SDS011;66777;52.282;5.960;2023-09-07T00:11:14;699.97;;;678.17;;
77612;SDS011;66777;52.282;5.960;2023-09-07T00:13:40;712.40;;;690.25;;
77612;SDS011;66777;52.282;5.960;2023-09-07T00:16:06;691.53;;;670.35;;
77612;SDS011;66777;52.282;5.960;2023-09-07T00:18:32;713.88;;;691.67;;
77612;SDS011;66777;52.282;5.960;2023-09-07T00:20:58;701.72;;;680.08;;
77612;SDS011;66777;52.282;5.960;2023-09-07T00:23:25;711.08;;;689.13;;
77612;SDS011;66777;52.282;5.960;2023-09-07T00:25:51;697.42;;;676.03;;
77612;SDS011;66777;52.282;5.960;2023-09-07T00:28:17;713.53;;;691.20;;
77612;SDS011;66777;52.282;5.960;2023-09-07T00:30:42;691.03;;;669.97;;
77612;SDS011;66777;52.282;5.960;2023-09-07T00:33:08;713.85;;;691.67;;
77612;SDS011;66777;52.282;5.960;2023-09-07T00:35:35;716.05;;;693.90;;
77612;SDS011;66777;52.282;5.960;2023-09-07T00:38:00;709.72;;;687.67;;
77612;SDS011;66777;52.282;5.960;2023-09-07T00:40:26;709.33;;;687.42;;
77612;SDS011;66777;52.282;5.960;2023-09-07T00:42:52;711.03;;;689.00;;
77612;SDS011;66777;52.282;5.960;2023-09-07T00:45:19;714.15;;;692.00;;
77612;SDS011;66777;52.282;5.960;2023-09-07T00:47:45;706.25;;;684.70;;
77612;SDS011;66777;52.282;5.960;2023-09-07T00:50:11;713.13;;;691.03;;
77612;SDS011;66777;52.282;5.960;2023-09-07T00:52:44;712.65;;;690.53;;
77612;SDS011;66777;52.282;5.960;2023-09-07T00:55:12;710.75;;;688.80;;
77612;SDS011;66777;52.282;5.960;2023-09-07T00:57:38;700.40;;;679.03;;
77612;SDS011;66777;52.282;5.960;2023-09-07T01:00:05;714.63;;;692.67;;
77612;SDS011;66777;52.282;5.960;2023-09-07T01:02:32;709.75;;;687.88;;
77612;SDS011;66777;52.282;5.960;2023-09-07T01:04:58;693.85;;;672.85;;
77612;SDS011;66777;52.282;5.960;2023-09-07T01:07:25;699.55;;;678.17;;
77612;SDS011;66777;52.282;5.960;2023-09-07T01:12:39;685.67;;;665.15;;
77612;SDS011;66777;52.282;5.960;2023-09-07T01:15:06;703.92;;;682.60;;
77612;SDS011;66777;52.282;5.960;2023-09-07T01:17:32;690.17;;;669.42;;
77612;SDS011;66777;52.282;5.960;2023-09-07T01:19:58;707.22;;;685.63;;
77612;SDS011;66777;52.282;5.960;2023-09-07T01:22:34;713.17;;;691.17;;
77612;SDS011;66777;52.282;5.960;2023-09-07T01:25:01;717.13;;;694.65;;
77612;SDS011;66777;52.282;5.960;2023-09-07T01:27:29;711.35;;;689.65;;
77612;SDS011;66777;52.282;5.960;2023-09-07T01:29:55;706.25;;;684.83;;
77612;SDS011;66777;52.282;5.960;2023-09-07T01:32:22;707.53;;;685.83;;
77612;SDS011;66777;52.282;5.960;2023-09-07T01:34:48;706.13;;;684.60;;
77612;SDS011;66777;52.282;5.960;2023-09-07T01:37:14;706.70;;;685.30;;
77612;SDS011;66777;52.282;5.960;2023-09-07T01:39:39;701.67;;;680.50;;
77612;SDS011;66777;52.282;5.960;2023-09-07T01:42:06;708.70;;;687.00;;
77612;SDS011;66777;52.282;5.960;2023-09-07T01:44:31;702.75;;;681.30;;
77612;SDS011;66777;52.282;5.960;2023-09-07T01:46:58;701.70;;;680.47;;
77612;SDS011;66777;52.282;5.960;2023-09-07T01:49:24;683.25;;;662.97;;
77612;SDS011;66777;52.282;5.960;2023-09-07T01:51:51;705.53;;;684.00;;
77612;SDS011;66777;52.282;5.960;2023-09-07T01:54:17;687.63;;;667.13;;
77612;SDS011;66777;52.282;5.960;2023-09-07T01:56:43;704.80;;;683.38;;
77612;SDS011;66777;52.282;5.960;2023-09-07T01:59:08;702.25;;;681.17;;
77612;SDS011;66777;52.282;5.960;2023-09-07T02:01:34;704.90;;;683.50;;
77612;SDS011;66777;52.282;5.960;2023-09-07T02:04:02;685.75;;;665.33;;
77612;SDS011;66777;52.282;5.960;2023-09-07T02:06:28;702.83;;;681.65;;
77612;SDS011;66777;52.282;5.960;2023-09-07T02:08:53;704.30;;;682.97;;
77612;SDS011;66777;52.282;5.960;2023-09-07T02:11:19;679.83;;;659.83;;
77612;SDS011;66777;52.282;5.960;2023-09-07T02:13:46;684.95;;;664.67;;
77612;SDS011;66777;52.282;5.960;2023-09-07T02:16:13;688.38;;;668.08;;
77612;SDS011;66777;52.282;5.960;2023-09-07T02:18:38;681.58;;;661.47;;
77612;SDS011;66777;52.282;5.960;2023-09-07T02:21:11;703.17;;;682.10;;
77612;SDS011;66777;52.282;5.960;2023-09-07T02:23:37;698.78;;;677.67;;
77612;SDS011;66777;52.282;5.960;2023-09-07T02:26:03;703.33;;;682.22;;
77612;SDS011;66777;52.282;5.960;2023-09-07T02:28:29;701.80;;;680.75;;
77612;SDS011;66777;52.282;5.960;2023-09-07T02:31:01;701.35;;;680.17;;
77612;SDS011;66777;52.282;5.960;2023-09-07T02:33:27;699.42;;;678.47;;
77612;SDS011;66777;52.282;5.960;2023-09-07T02:35:53;697.85;;;677.08;;
77612;SDS011;66777;52.282;5.960;2023-09-07T02:38:19;680.22;;;660.20;;
77612;SDS011;66777;52.282;5.960;2023-09-07T02:40:44;699.40;;;678.33;;
77612;SDS011;66777;52.282;5.960;2023-09-07T02:43:10;701.83;;;680.63;;
77612;SDS011;66777;52.282;5.960;2023-09-07T02:45:37;687.47;;;666.95;;
77612;SDS011;66777;52.282;5.960;2023-09-07T02:48:03;694.55;;;673.70;;
77612;SDS011;66777;52.282;5.960;2023-09-07T02:50:31;704.15;;;683.03;;
77612;SDS011;66777;52.282;5.960;2023-09-07T02:52:58;697.50;;;676.67;;
77612;SDS011;66777;52.282;5.960;2023-09-07T02:55:29;676.38;;;656.70;;
77612;SDS011;66777;52.282;5.960;2023-09-07T02:57:57;699.95;;;678.95;;
77612;SDS011;66777;52.282;5.960;2023-09-07T03:00:24;695.78;;;675.03;;
77612;SDS011;66777;52.282;5.960;2023-09-07T03:02:50;703.70;;;682.35;;
77612;SDS011;66777;52.282;5.960;2023-09-07T03:05:16;694.05;;;673.30;;
77612;SDS011;66777;52.282;5.960;2023-09-07T03:07:41;692.53;;;671.88;;
77612;SDS011;66777;52.282;5.960;2023-09-07T03:10:09;684.10;;;663.97;;
77612;SDS011;66777;52.282;5.960;2023-09-07T03:12:35;691.78;;;671.25;;
77612;SDS011;66777;52.282;5.960;2023-09-07T03:15:01;697.88;;;677.22;;
77612;SDS011;66777;52.282;5.960;2023-09-07T03:17:29;691.50;;;671.15;;
77612;SDS011;66777;52.282;5.960;2023-09-07T03:19:55;697.55;;;676.70;;
77612;SDS011;66777;52.282;5.960;2023-09-07T03:22:24;698.50;;;677.63;;
77612;SDS011;66777;52.282;5.960;2023-09-07T03:24:50;695.58;;;674.90;;
77612;SDS011;66777;52.282;5.960;2023-09-07T03:27:16;698.65;;;678.00;;
77612;SDS011;66777;52.282;5.960;2023-09-07T03:29:44;693.03;;;672.63;;
77612;SDS011;66777;52.282;5.960;2023-09-07T03:32:09;694.08;;;673.55;;
77612;SDS011;66777;52.282;5.960;2023-09-07T03:34:35;694.17;;;673.75;;
77612;SDS011;66777;52.282;5.960;2023-09-07T03:37:01;695.42;;;674.97;;
77612;SDS011;66777;52.282;5.960;2023-09-07T03:39:31;697.92;;;676.97;;
77612;SDS011;66777;52.282;5.960;2023-09-07T03:41:57;690.72;;;670.53;;
77612;SDS011;66777;52.282;5.960;2023-09-07T03:44:22;692.15;;;671.75;;
77612;SDS011;66777;52.282;5.960;2023-09-07T03:46:48;695.20;;;674.78;;
77612;SDS011;66777;52.282;5.960;2023-09-07T03:49:14;689.65;;;669.50;;
77612;SDS011;66777;52.282;5.960;2023-09-07T03:51:39;693.90;;;673.00;;
77612;SDS011;66777;52.282;5.960;2023-09-07T03:54:05;691.55;;;671.25;;
77612;SDS011;66777;52.282;5.960;2023-09-07T03:56:30;689.13;;;669.00;;
77612;SDS011;66777;52.282;5.960;2023-09-07T03:58:56;692.60;;;672.17;;
77612;SDS011;66777;52.282;5.960;2023-09-07T04:01:21;686.03;;;665.83;;
77612;SDS011;66777;52.282;5.960;2023-09-07T04:03:47;689.10;;;668.90;;
77612;SDS011;66777;52.282;5.960;2023-09-07T04:06:14;691.15;;;670.97;;
77612;SDS011;66777;52.282;5.960;2023-09-07T04:08:39;687.88;;;667.88;;
77612;SDS011;66777;52.282;5.960;2023-09-07T04:11:05;684.00;;;664.17;;
77612;SDS011;66777;52.282;5.960;2023-09-07T04:13:32;690.78;;;670.63;;
77612;SDS011;66777;52.282;5.960;2023-09-07T04:16:00;683.75;;;663.85;;
77612;SDS011;66777;52.282;5.960;2023-09-07T04:18:26;688.67;;;668.45;;
77612;SDS011;66777;52.282;5.960;2023-09-07T04:20:52;681.38;;;661.28;;
77612;SDS011;66777;52.282;5.960;2023-09-07T04:23:18;691.08;;;671.05;;
77612;SDS011;66777;52.282;5.960;2023-09-07T04:25:44;685.30;;;665.42;;
77612;SDS011;66777;52.282;5.960;2023-09-07T04:28:09;687.85;;;667.70;;
77612;SDS011;66777;52.282;5.960;2023-09-07T04:30:38;696.17;;;675.70;;
77612;SDS011;66777;52.282;5.960;2023-09-07T04:35:30;679.15;;;659.45;;
77612;SDS011;66777;52.282;5.960;2023-09-07T04:37:57;683.42;;;663.65;;
77612;SDS011;66777;52.282;5.960;2023-09-07T04:40:24;684.85;;;665.10;;
77612;SDS011;66777;52.282;5.960;2023-09-07T04:42:50;661.72;;;642.75;;
77612;SDS011;66777;52.282;5.960;2023-09-07T04:45:16;682.83;;;663.08;;
77612;SDS011;66777;52.282;5.960;2023-09-07T04:47:42;685.85;;;665.85;;
77612;SDS011;66777;52.282;5.960;2023-09-07T04:50:08;691.63;;;671.13;;
77612;SDS011;66777;52.282;5.960;2023-09-07T04:52:34;692.05;;;671.78;;
77612;SDS011;66777;52.282;5.960;2023-09-07T04:55:01;684.78;;;665.03;;
77612;SDS011;66777;52.282;5.960;2023-09-07T04:57:28;689.33;;;669.28;;
77612;SDS011;66777;52.282;5.960;2023-09-07T04:59:55;686.08;;;666.30;;
77612;SDS011;66777;52.282;5.960;2023-09-07T05:02:21;688.08;;;668.22;;
77612;SDS011;66777;52.282;5.960;2023-09-07T05:04:47;682.72;;;663.10;;
77612;SDS011;66777;52.282;5.960;2023-09-07T05:07:13;688.65;;;668.72;;
77612;SDS011;66777;52.282;5.960;2023-09-07T05:09:38;684.13;;;664.50;;
77612;SDS011;66777;52.282;5.960;2023-09-07T05:12:04;682.58;;;662.92;;
77612;SDS011;66777;52.282;5.960;2023-09-07T05:14:30;688.38;;;668.20;;
77612;SDS011;66777;52.282;5.960;2023-09-07T05:16:56;684.70;;;665.05;;
77612;SDS011;66777;52.282;5.960;2023-09-07T05:19:21;683.60;;;663.88;;
77612;SDS011;66777;52.282;5.960;2023-09-07T05:21:47;687.22;;;667.05;;
77612;SDS011;66777;52.282;5.960;2023-09-07T05:24:13;679.40;;;659.80;;
77612;SDS011;66777;52.282;5.960;2023-09-07T05:26:40;686.28;;;666.40;;
77612;SDS011;66777;52.282;5.960;2023-09-07T05:29:07;684.58;;;664.92;;
77612;SDS011;66777;52.282;5.960;2023-09-07T05:31:32;661.70;;;642.90;;
77612;SDS011;66777;52.282;5.960;2023-09-07T05:33:58;675.70;;;656.25;;
77612;SDS011;66777;52.282;5.960;2023-09-07T05:36:24;681.78;;;662.13;;
77612;SDS011;66777;52.282;5.960;2023-09-07T05:38:49;677.67;;;658.25;;
77612;SDS011;66777;52.282;5.960;2023-09-07T05:41:15;656.85;;;638.45;;
77612;SDS011;66777;52.282;5.960;2023-09-07T05:43:40;677.65;;;657.95;;
77612;SDS011;66777;52.282;5.960;2023-09-07T05:46:06;662.15;;;643.45;;
77612;SDS011;66777;52.282;5.960;2023-09-07T05:48:32;680.08;;;660.42;;
77612;SDS011;66777;52.282;5.960;2023-09-07T05:50:58;689.05;;;669.28;;
77612;SDS011;66777;52.282;5.960;2023-09-07T05:53:24;679.00;;;659.45;;
77612;SDS011;66777;52.282;5.960;2023-09-07T05:55:51;675.80;;;656.50;;
77612;SDS011;66777;52.282;5.960;2023-09-07T05:58:17;683.03;;;663.47;;
77612;SDS011;66777;52.282;5.960;2023-09-07T06:00:42;682.80;;;663.17;;
77612;SDS011;66777;52.282;5.960;2023-09-07T06:03:08;676.97;;;657.63;;
77612;SDS011;66777;52.282;5.960;2023-09-07T06:05:34;688.15;;;668.13;;
77612;SDS011;66777;52.282;5.960;2023-09-07T06:08:01;685.00;;;664.90;;
77612;SDS011;66777;52.282;5.960;2023-09-07T06:10:27;685.95;;;665.67;;
77612;SDS011;66777;52.282;5.960;2023-09-07T06:12:54;687.13;;;667.20;;
77612;SDS011;66777;52.282;5.960;2023-09-07T06:15:20;688.13;;;668.13;;
77612;SDS011;66777;52.282;5.960;2023-09-07T06:17:46;661.70;;;642.83;;
77612;SDS011;66777;52.282;5.960;2023-09-07T06:20:11;685.15;;;665.38;;
77612;SDS011;66777;52.282;5.960;2023-09-07T06:22:37;681.38;;;661.80;;
77612;SDS011;66777;52.282;5.960;2023-09-07T06:25:03;678.42;;;659.15;;
77612;SDS011;66777;52.282;5.960;2023-09-07T06:27:29;681.03;;;661.22;;
77612;SDS011;66777;52.282;5.960;2023-09-07T06:29:54;679.03;;;659.40;;
77612;SDS011;66777;52.282;5.960;2023-09-07T06:32:20;683.20;;;663.38;;
77612;SDS011;66777;52.282;5.960;2023-09-07T06:34:45;685.97;;;666.03;;
77612;SDS011;66777;52.282;5.960;2023-09-07T06:37:12;683.38;;;663.50;;
77612;SDS011;66777;52.282;5.960;2023-09-07T06:39:38;693.53;;;673.17;;
77612;SDS011;66777;52.282;5.960;2023-09-07T06:42:04;691.13;;;670.78;;
77612;SDS011;66777;52.282;5.960;2023-09-07T06:44:29;691.55;;;670.95;;
77612;SDS011;66777;52.282;5.960;2023-09-07T06:46:55;694.63;;;674.03;;
77612;SDS011;66777;52.282;5.960;2023-09-07T06:49:21;689.80;;;669.40;;
77612;SDS011;66777;52.282;5.960;2023-09-07T06:51:47;683.55;;;663.45;;
77612;SDS011;66777;52.282;5.960;2023-09-07T06:54:12;684.97;;;664.75;;
77612;SDS011;66777;52.282;5.960;2023-09-07T06:56:38;689.58;;;669.00;;
77612;SDS011;66777;52.282;5.960;2023-09-07T06:59:04;692.72;;;672.30;;
77612;SDS011;66777;52.282;5.960;2023-09-07T07:01:30;696.67;;;676.00;;
77612;SDS011;66777;52.282;5.960;2023-09-07T07:03:55;687.38;;;666.92;;
77612;SDS011;66777;52.282;5.960;2023-09-07T07:06:22;693.47;;;672.47;;
77612;SDS011;66777;52.282;5.960;2023-09-07T07:08:48;697.30;;;675.97;;
77612;SDS011;66777;52.282;5.960;2023-09-07T07:11:13;692.78;;;671.83;;
77612;SDS011;66777;52.282;5.960;2023-09-07T07:13:39;697.40;;;676.42;;
77612;SDS011;66777;52.282;5.960;2023-09-07T07:16:04;689.00;;;668.05;;
77612;SDS011;66777;52.282;5.960;2023-09-07T07:18:30;693.20;;;671.97;;
77612;SDS011;66777;52.282;5.960;2023-09-07T07:20:56;696.58;;;675.42;;
77612;SDS011;66777;52.282;5.960;2023-09-07T07:23:21;695.35;;;673.88;;
77612;SDS011;66777;52.282;5.960;2023-09-07T07:25:47;695.08;;;673.63;;
77612;SDS011;66777;52.282;5.960;2023-09-07T07:28:12;699.38;;;677.72;;
77612;SDS011;66777;52.282;5.960;2023-09-07T07:30:38;694.40;;;672.95;;
77612;SDS011;66777;52.282;5.960;2023-09-07T07:33:08;699.88;;;677.80;;
77612;SDS011;66777;52.282;5.960;2023-09-07T07:35:34;698.03;;;676.38;;
77612;SDS011;66777;52.282;5.960;2023-09-07T07:38:00;702.92;;;681.03;;
77612;SDS011;66777;52.282;5.960;2023-09-07T07:40:26;699.85;;;678.05;;
77612;SDS011;66777;52.282;5.960;2023-09-07T07:42:52;705.70;;;683.60;;
77612;SDS011;66777;52.282;5.960;2023-09-07T07:45:18;710.13;;;687.47;;
77612;SDS011;66777;52.282;5.960;2023-09-07T07:47:50;705.10;;;682.75;;
77612;SDS011;66777;52.282;5.960;2023-09-07T07:50:16;709.85;;;687.13;;
77612;SDS011;66777;52.282;5.960;2023-09-07T07:52:43;708.38;;;685.65;;
77612;SDS011;66777;52.282;5.960;2023-09-07T07:55:09;707.83;;;685.22;;
77612;SDS011;66777;52.282;5.960;2023-09-07T07:57:35;709.15;;;686.90;;
77612;SDS011;66777;52.282;5.960;2023-09-07T08:00:01;711.28;;;688.28;;
77612;SDS011;66777;52.282;5.960;2023-09-07T08:02:29;705.97;;;683.15;;
77612;SDS011;66777;52.282;5.960;2023-09-07T08:04:54;711.13;;;688.35;;
77612;SDS011;66777;52.282;5.960;2023-09-07T08:07:20;708.20;;;685.55;;
77612;SDS011;66777;52.282;5.960;2023-09-07T08:09:46;714.17;;;691.63;;
77612;SDS011;66777;52.282;5.960;2023-09-07T08:12:12;716.80;;;693.88;;
77612;SDS011;66777;52.282;5.960;2023-09-07T08:14:37;719.05;;;695.85;;
77612;SDS011;66777;52.282;5.960;2023-09-07T08:17:03;712.22;;;688.97;;
77612;SDS011;66777;52.282;5.960;2023-09-07T08:19:29;719.47;;;696.33;;
77612;SDS011;66777;52.282;5.960;2023-09-07T08:21:54;710.38;;;687.35;;
77612;SDS011;66777;52.282;5.960;2023-09-07T08:24:20;717.00;;;694.05;;
77612;SDS011;66777;52.282;5.960;2023-09-07T08:26:45;711.50;;;688.67;;
77612;SDS011;66777;52.282;5.960;2023-09-07T08:29:16;715.05;;;692.08;;
77612;SDS011;66777;52.282;5.960;2023-09-07T08:31:42;709.58;;;686.75;;
77612;SDS011;66777;52.282;5.960;2023-09-07T08:34:10;710.83;;;687.95;;
77612;SDS011;66777;52.282;5.960;2023-09-07T08:36:40;712.40;;;689.30;;
77612;SDS011;66777;52.282;5.960;2023-09-07T08:39:05;713.67;;;690.85;;
77612;SDS011;66777;52.282;5.960;2023-09-07T08:41:36;703.85;;;681.60;;
77612;SDS011;66777;52.282;5.960;2023-09-07T08:44:18;718.63;;;695.65;;
77612;SDS011;66777;52.282;5.960;2023-09-07T08:46:49;712.30;;;689.38;;
77612;SDS011;66777;52.282;5.960;2023-09-07T08:49:15;718.80;;;695.80;;
77612;SDS011;66777;52.282;5.960;2023-09-07T08:51:44;714.60;;;691.80;;
77612;SDS011;66777;52.282;5.960;2023-09-07T08:54:10;711.03;;;688.28;;
77612;SDS011;66777;52.282;5.960;2023-09-07T08:56:37;714.67;;;691.50;;
77612;SDS011;66777;52.282;5.960;2023-09-07T08:59:02;712.90;;;690.13;;
77612;SDS011;66777;52.282;5.960;2023-09-07T09:01:29;723.97;;;700.45;;
77612;SDS011;66777;52.282;5.960;2023-09-07T09:03:56;714.95;;;692.00;;
77612;SDS011;66777;52.282;5.960;2023-09-07T09:06:22;711.58;;;688.83;;
77612;SDS011;66777;52.282;5.960;2023-09-07T09:08:49;713.28;;;690.15;;
77612;SDS011;66777;52.282;5.960;2023-09-07T09:11:17;714.92;;;691.83;;
77612;SDS011;66777;52.282;5.960;2023-09-07T09:13:43;711.65;;;688.92;;
77612;SDS011;66777;52.282;5.960;2023-09-07T09:16:10;715.25;;;692.13;;
77612;SDS011;66777;52.282;5.960;2023-09-07T09:18:37;720.25;;;696.90;;
77612;SDS011;66777;52.282;5.960;2023-09-07T09:21:04;716.05;;;692.80;;
77612;SDS011;66777;52.282;5.960;2023-09-07T09:23:31;717.08;;;693.78;;
77612;SDS011;66777;52.282;5.960;2023-09-07T09:25:59;720.30;;;697.15;;
77612;SDS011;66777;52.282;5.960;2023-09-07T09:28:25;726.40;;;702.63;;
77612;SDS011;66777;52.282;5.960;2023-09-07T09:30:52;725.42;;;701.65;;
77612;SDS011;66777;52.282;5.960;2023-09-07T09:33:19;727.83;;;704.00;;
77612;SDS011;66777;52.282;5.960;2023-09-07T09:35:46;727.15;;;703.42;;
77612;SDS011;66777;52.282;5.960;2023-09-07T09:38:12;724.15;;;700.35;;
77612;SDS011;66777;52.282;5.960;2023-09-07T09:40:38;725.30;;;701.78;;
77612;SDS011;66777;52.282;5.960;2023-09-07T09:43:04;726.63;;;702.92;;
77612;SDS011;66777;52.282;5.960;2023-09-07T09:45:30;726.40;;;702.88;;
77612;SDS011;66777;52.282;5.960;2023-09-07T09:47:58;727.88;;;704.08;;
77612;SDS011;66777;52.282;5.960;2023-09-07T09:50:26;728.72;;;704.83;;
77612;SDS011;66777;52.282;5.960;2023-09-07T09:52:53;708.58;;;685.92;;
77612;SDS011;66777;52.282;5.960;2023-09-07T09:55:18;727.60;;;703.83;;
77612;SDS011;66777;52.282;5.960;2023-09-07T09:57:44;735.45;;;711.05;;
77612;SDS011;66777;52.282;5.960;2023-09-07T10:00:10;726.78;;;702.78;;
77612;SDS011;66777;52.282;5.960;2023-09-07T10:02:54;729.03;;;704.85;;
77612;SDS011;66777;52.282;5.960;2023-09-07T10:05:28;730.63;;;706.60;;
77612;SDS011;66777;52.282;5.960;2023-09-07T10:08:00;731.47;;;707.17;;
77612;SDS011;66777;52.282;5.960;2023-09-07T10:10:34;729.33;;;705.40;;
77612;SDS011;66777;52.282;5.960;2023-09-07T10:13:01;732.38;;;708.30;;
77612;SDS011;66777;52.282;5.960;2023-09-07T10:15:27;731.05;;;707.13;;
77612;SDS011;66777;52.282;5.960;2023-09-07T10:18:10;734.58;;;710.33;;
77612;SDS011;66777;52.282;5.960;2023-09-07T10:20:48;733.55;;;709.47;;
77612;SDS011;66777;52.282;5.960;2023-09-07T10:23:15;736.03;;;711.58;;
77612;SDS011;66777;52.282;5.960;2023-09-07T10:25:41;738.70;;;714.17;;
77612;SDS011;66777;52.282;5.960;2023-09-07T10:28:17;735.00;;;710.67;;
77612;SDS011;66777;52.282;5.960;2023-09-07T10:30:59;735.45;;;711.10;;
77612;SDS011;66777;52.282;5.960;2023-09-07T10:33:27;735.47;;;710.90;;
77612;SDS011;66777;52.282;5.960;2023-09-07T10:35:52;738.22;;;713.63;;
77612;SDS011;66777;52.282;5.960;2023-09-07T10:38:18;738.35;;;713.75;;
77612;SDS011;66777;52.282;5.960;2023-09-07T10:40:43;739.72;;;714.97;;
77612;SDS011;66777;52.282;5.960;2023-09-07T10:43:10;744.40;;;719.30;;
77612;SDS011;66777;52.282;5.960;2023-09-07T10:45:36;726.90;;;702.72;;
77612;SDS011;66777;52.282;5.960;2023-09-07T10:48:02;732.10;;;708.00;;
77612;SDS011;66777;52.282;5.960;2023-09-07T10:50:41;737.50;;;712.72;;
77612;SDS011;66777;52.282;5.960;2023-09-07T10:53:11;731.60;;;707.08;;
77612;SDS011;66777;52.282;5.960;2023-09-07T10:55:38;743.30;;;718.50;;
77612;SDS011;66777;52.282;5.960;2023-09-07T10:58:05;743.83;;;718.97;;
77612;SDS011;66777;52.282;5.960;2023-09-07T11:00:31;745.40;;;720.22;;
77612;SDS011;66777;52.282;5.960;2023-09-07T11:02:56;742.88;;;717.88;;
77612;SDS011;66777;52.282;5.960;2023-09-07T11:05:22;731.42;;;706.95;;
77612;SDS011;66777;52.282;5.960;2023-09-07T11:07:47;733.28;;;708.38;;
77612;SDS011;66777;52.282;5.960;2023-09-07T11:10:13;733.83;;;709.05;;
77612;SDS011;66777;52.282;5.960;2023-09-07T11:12:39;733.95;;;709.28;;
77612;SDS011;66777;52.282;5.960;2023-09-07T11:15:08;745.42;;;720.22;;
77612;SDS011;66777;52.282;5.960;2023-09-07T11:17:36;748.80;;;723.28;;
77612;SDS011;66777;52.282;5.960;2023-09-07T11:20:03;748.28;;;722.72;;
77612;SDS011;66777;52.282;5.960;2023-09-07T11:22:31;735.10;;;710.08;;
77612;SDS011;66777;52.282;5.960;2023-09-07T11:24:59;739.22;;;713.90;;
77612;SDS011;66777;52.282;5.960;2023-09-07T11:27:28;753.00;;;727.13;;
77612;SDS011;66777;52.282;5.960;2023-09-07T11:29:55;740.72;;;715.25;;
77612;SDS011;66777;52.282;5.960;2023-09-07T11:32:21;742.67;;;716.72;;
77612;SDS011;66777;52.282;5.960;2023-09-07T11:34:49;744.75;;;718.83;;
77612;SDS011;66777;52.282;5.960;2023-09-07T11:37:16;737.20;;;711.80;;
77612;SDS011;66777;52.282;5.960;2023-09-07T11:39:43;740.10;;;714.28;;
77612;SDS011;66777;52.282;5.960;2023-09-07T11:42:09;741.33;;;715.53;;
77612;SDS011;66777;52.282;5.960;2023-09-07T11:44:34;755.17;;;728.97;;
77612;SDS011;66777;52.282;5.960;2023-09-07T11:47:00;746.78;;;720.38;;
77612;SDS011;66777;52.282;5.960;2023-09-07T11:49:26;750.28;;;723.40;;
77612;SDS011;66777;52.282;5.960;2023-09-07T11:51:51;747.25;;;720.83;;
77612;SDS011;66777;52.282;5.960;2023-09-07T11:54:17;751.17;;;724.63;;
77612;SDS011;66777;52.282;5.960;2023-09-07T11:56:42;741.10;;;715.00;;
77612;SDS011;66777;52.282;5.960;2023-09-07T11:59:10;750.67;;;724.17;;
77612;SDS011;66777;52.282;5.960;2023-09-07T12:01:36;746.35;;;720.05;;
77612;SDS011;66777;52.282;5.960;2023-09-07T12:04:04;752.15;;;725.35;;
77612;SDS011;66777;52.282;5.960;2023-09-07T12:06:30;746.88;;;720.50;;
77612;SDS011;66777;52.282;5.960;2023-09-07T12:09:00;753.45;;;726.80;;
77612;SDS011;66777;52.282;5.960;2023-09-07T12:11:26;751.97;;;725.20;;
77612;SDS011;66777;52.282;5.960;2023-09-07T12:13:52;754.88;;;728.08;;
77612;SDS011;66777;52.282;5.960;2023-09-07T12:16:17;749.78;;;722.97;;
77612;SDS011;66777;52.282;5.960;2023-09-07T12:18:43;752.88;;;725.92;;
77612;SDS011;66777;52.282;5.960;2023-09-07T12:21:08;754.03;;;726.92;;
77612;SDS011;66777;52.282;5.960;2023-09-07T12:23:34;748.70;;;722.03;;
77612;SDS011;66777;52.282;5.960;2023-09-07T12:26:00;751.05;;;724.28;;
77612;SDS011;66777;52.282;5.960;2023-09-07T12:28:26;755.40;;;728.30;;
77612;SDS011;66777;52.282;5.960;2023-09-07T12:30:52;754.67;;;727.67;;
77612;SDS011;66777;52.282;5.960;2023-09-07T12:33:18;751.05;;;723.83;;
77612;SDS011;66777;52.282;5.960;2023-09-07T12:35:44;753.53;;;725.95;;
77612;SDS011;66777;52.282;5.960;2023-09-07T12:38:09;753.05;;;725.58;;
77612;SDS011;66777;52.282;5.960;2023-09-07T12:40:37;756.67;;;728.88;;
77612;SDS011;66777;52.282;5.960;2023-09-07T12:43:03;764.20;;;736.03;;
77612;SDS011;66777;52.282;5.960;2023-09-07T12:45:28;756.80;;;729.22;;
77612;SDS011;66777;52.282;5.960;2023-09-07T12:47:54;758.47;;;730.63;;
77612;SDS011;66777;52.282;5.960;2023-09-07T12:50:19;757.88;;;729.85;;
77612;SDS011;66777;52.282;5.960;2023-09-07T12:52:45;758.67;;;731.03;;
77612;SDS011;66777;52.282;5.960;2023-09-07T12:55:11;758.20;;;730.67;;
77612;SDS011;66777;52.282;5.960;2023-09-07T12:57:36;752.55;;;725.42;;
77612;SDS011;66777;52.282;5.960;2023-09-07T13:00:03;750.30;;;723.28;;
77612;SDS011;66777;52.282;5.960;2023-09-07T13:02:29;760.58;;;732.92;;
77612;SDS011;66777;52.282;5.960;2023-09-07T13:04:55;755.40;;;727.83;;
77612;SDS011;66777;52.282;5.960;2023-09-07T13:07:21;758.35;;;730.60;;
77612;SDS011;66777;52.282;5.960;2023-09-07T13:09:46;764.63;;;736.50;;
77612;SDS011;66777;52.282;5.960;2023-09-07T13:12:12;760.13;;;732.33;;
77612;SDS011;66777;52.282;5.960;2023-09-07T13:14:38;759.17;;;731.47;;
77612;SDS011;66777;52.282;5.960;2023-09-07T13:17:03;769.20;;;741.05;;
77612;SDS011;66777;52.282;5.960;2023-09-07T13:19:29;753.60;;;725.78;;
77612;SDS011;66777;52.282;5.960;2023-09-07T13:21:54;758.78;;;730.97;;
77612;SDS011;66777;52.282;5.960;2023-09-07T13:24:20;758.50;;;730.70;;
77612;SDS011;66777;52.282;5.960;2023-09-07T13:26:47;758.53;;;730.75;;
77612;SDS011;66777;52.282;5.960;2023-09-07T13:29:13;773.90;;;745.33;;
77612;SDS011;66777;52.282;5.960;2023-09-07T13:31:39;765.40;;;737.08;;
77612;SDS011;66777;52.282;5.960;2023-09-07T13:34:05;762.03;;;734.05;;
77612;SDS011;66777;52.282;5.960;2023-09-07T13:36:31;762.83;;;734.65;;
77612;SDS011;66777;52.282;5.960;2023-09-07T13:38:56;764.70;;;736.35;;
77612;SDS011;66777;52.282;5.960;2023-09-07T13:41:25;761.42;;;732.97;;
77612;SDS011;66777;52.282;5.960;2023-09-07T13:43:51;761.35;;;733.15;;
77612;SDS011;66777;52.282;5.960;2023-09-07T13:46:16;764.33;;;735.95;;
77612;SDS011;66777;52.282;5.960;2023-09-07T13:48:42;764.38;;;736.00;;
77612;SDS011;66777;52.282;5.960;2023-09-07T13:51:08;765.60;;;737.17;;
77612;SDS011;66777;52.282;5.960;2023-09-07T13:53:33;758.20;;;730.20;;
77612;SDS011;66777;52.282;5.960;2023-09-07T13:55:59;763.67;;;735.42;;
77612;SDS011;66777;52.282;5.960;2023-09-07T13:58:24;763.10;;;734.47;;